map of FFO home
FFO - Airport
Location
City:  Dayton, Ohio, United States
Name:Wright-Patterson AFB
ICAO:KFFO
IATA:FFO
FAA LID:FFO

Details
Type:Airport (Airfield)
Use:Military
Latitude:3949'33"N (39.825971)
Longitude:8402'46"W (-84.046102)
Datum:WGS 1984
Elevation:823 ft (251 m)
Variation:6.36W (WMM2015 magnetic declination)
-0.05 annual change
Runways:2
Longest:12600 × 300 ft (3840 × 91.5 m), paved

Time
Time Zone:UTC-5 (DST-4)
Local Time:

Weather
METAR:KFFO 190256Z AUTO 00000KT 10SM CLR 22/20 A2996 RMK AO2 SLP143 T02180202 53009
TAF:KFFO 190300Z 1903/2009 02006KT 9999 FEW040 QNH2991INS
BECMG 1905/1906 04006KT 9999 SKC QNH2992INS TX28/1921Z TN16/1910Z

Related Locations
Nearby:
Farthest:YAUG: 11318 mi / 18214 km
Augusta [Augusta Airport], WA, AU

Find:

   beyond  
but within

Other Information
Maps:
NOTAMs:
Links:
Sources:

  
  • flag of United States
  • flag of Ohio
  • flag of Dayton
  

Airport Diagram

Airport diagram for FFO

Airport diagram PDF

Sectional Chart

Flight Planning
at skyvector.com

Satellite Image

Google Maps Satellite view

 

Copyright © 2004-2018 Karl L. Swartz. All rights reserved.
The Great Circle Mapper name and logo are trademarks of the Great Circle Mapper.
All other trademarks mentioned herein belong to their respective owners.
Please see credits for attibutions and further copyright information.

  Follow gcmap on Facebook Follow gcmap on Twitter Follow gcmap on Google+ GCmap on LinkedIn

hCard Microformat

Geo Microformat